Time;durP1;ratioP1;P1;durP2;ratioP2;P2;SDS_P1;SDS_P2;PMS_P1;PMS_P2;Temp;Humidity;BMP_temperature;BMP_pressure;BME280_temperature;BME280_humidity;BME280_pressure;Samples;Min_cycle;Max_cycle;Signal;HPM_P1;HPM_P2
2024/02/23 00:02:12;;;;;;;6.32;0.60;;;;;;;8.38;100.00;98022.41;4963386;28;20050;-72
2024/02/23 00:04:41;;;;;;;2.88;0.50;;;;;;;8.24;100.00;98035.75;4959774;28;20601;-72
2024/02/23 00:07:09;;;;;;;0.93;0.45;;;;;;;8.05;100.00;98046.81;4959092;28;20061;-74
2024/02/23 00:09:38;;;;;;;0.43;0.30;;;;;;;7.99;100.00;98045.50;4956470;28;20036;-73
2024/02/23 00:12:08;;;;;;;2.25;0.75;;;;;;;7.98;100.00;98053.53;4961658;28;20102;-70
2024/02/23 00:14:37;;;;;;;2.47;0.70;;;;;;;7.99;100.00;98052.56;4979364;28;20049;-70
2024/02/23 00:17:06;;;;;;;5.03;0.55;;;;;;;8.00;100.00;98060.38;4971480;28;20059;-68
2024/02/23 00:19:35;;;;;;;1.45;0.47;;;;;;;8.04;100.00;98050.41;4967289;28;20070;-72
2024/02/23 00:22:03;;;;;;;2.75;0.38;;;;;;;8.10;100.00;98047.34;4957288;28;20106;-71
2024/02/23 00:24:36;;;;;;;3.47;0.60;;;;;;;8.03;100.00;98032.91;4950290;28;20043;-70
2024/02/23 00:27:05;;;;;;;1.05;0.40;;;;;;;8.18;100.00;98066.06;4970355;28;20050;-71
2024/02/23 00:29:33;;;;;;;1.90;0.70;;;;;;;8.19;100.00;98074.78;4951189;28;20055;-70
2024/02/23 00:32:01;;;;;;;2.70;0.47;;;;;;;8.19;100.00;98083.53;4951305;28;20404;-72
2024/02/23 00:34:30;;;;;;;2.55;0.57;;;;;;;8.15;100.00;98073.38;4946322;28;20051;-70
2024/02/23 00:37:01;;;;;;;3.35;0.60;;;;;;;8.23;100.00;98105.25;4955329;28;20817;-71
2024/02/23 00:39:31;;;;;;;2.38;0.77;;;;;;;8.19;100.00;98103.78;4953251;28;20542;-70
2024/02/23 00:41:59;;;;;;;2.90;0.50;;;;;;;8.16;100.00;98101.41;4986520;28;20087;-68
2024/02/23 00:44:27;;;;;;;1.58;0.50;;;;;;;8.19;100.00;98111.69;4997915;28;20470;-73
2024/02/23 00:46:57;;;;;;;3.33;0.50;;;;;;;8.14;100.00;98116.50;5002129;28;20518;-71
2024/02/23 00:49:26;;;;;;;1.88;0.52;;;;;;;8.12;100.00;98127.16;4968786;28;20047;-72
2024/02/23 00:51:54;;;;;;;2.28;0.70;;;;;;;8.04;100.00;98125.06;5000181;28;20050;-72
2024/02/23 00:54:23;;;;;;;1.23;0.40;;;;;;;8.09;100.00;98138.75;4986237;28;20053;-72
2024/02/23 00:56:52;;;;;;;3.88;0.45;;;;;;;8.00;100.00;98133.31;4988913;28;20388;-70
2024/02/23 00:59:24;;;;;;;2.38;0.50;;;;;;;7.94;100.00;98117.94;4974183;28;20050;-70
2024/02/23 01:01:52;;;;;;;1.92;0.45;;;;;;;7.98;100.00;98135.22;4971369;28;20146;-71
2024/02/23 01:04:22;;;;;;;4.13;0.45;;;;;;;7.97;100.00;98138.81;4967539;28;20069;-72
2024/02/23 01:06:51;;;;;;;3.70;0.50;;;;;;;7.97;100.00;98154.63;4973067;28;20058;-69
2024/02/23 01:09:23;;;;;;;9.35;0.80;;;;;;;7.96;100.00;98143.22;4976389;28;20054;-71
2024/02/23 01:11:52;;;;;;;4.22;0.70;;;;;;;7.84;100.00;98136.22;4987674;28;20050;-70
2024/02/23 01:14:20;;;;;;;4.15;0.57;;;;;;;7.95;100.00;98167.06;4976813;28;20573;-71
2024/02/23 01:16:48;;;;;;;2.53;0.60;;;;;;;7.90;100.00;98175.28;4969716;28;20137;-70
2024/02/23 01:19:16;;;;;;;2.80;0.40;;;;;;;7.79;100.00;98171.72;4977631;28;20047;-70
2024/02/23 01:21:45;;;;;;;2.13;0.60;;;;;;;7.68;100.00;98172.50;4976202;28;20035;-69
2024/02/23 01:24:13;;;;;;;2.95;0.55;;;;;;;7.64;100.00;98181.56;4993710;28;20049;-68
2024/02/23 01:26:44;;;;;;;5.03;0.70;;;;;;;7.46;100.00;98177.56;4972547;28;20042;-70
2024/02/23 01:29:17;;;;;;;3.03;0.70;;;;;;;7.42;100.00;98184.84;4979716;28;20070;-69
2024/02/23 01:31:47;;;;;;;4.65;0.57;;;;;;;7.39;100.00;98192.97;4976216;28;20043;-71
2024/02/23 01:34:14;;;;;;;2.45;0.40;;;;;;;7.34;100.00;98210.88;4982340;28;20046;-70
2024/02/23 01:36:42;;;;;;;2.15;0.57;;;;;;;7.30;100.00;98201.47;4972549;28;20047;-70
2024/02/23 01:39:10;;;;;;;2.65;0.57;;;;;;;7.37;100.00;98214.13;4972285;28;20042;-71
2024/02/23 01:41:40;;;;;;;2.15;0.52;;;;;;;7.32;100.00;98210.97;4969460;28;20364;-69
2024/02/23 01:44:08;;;;;;;5.10;0.90;;;;;;;7.33;100.00;98230.25;4986700;28;20043;-70
2024/02/23 01:46:38;;;;;;;3.53;0.50;;;;;;;7.30;100.00;98218.13;4976337;28;20043;-69
2024/02/23 01:49:09;;;;;;;1.05;0.40;;;;;;;7.25;100.00;98236.00;4985235;28;20058;-71
2024/02/23 01:51:37;;;;;;;1.50;0.40;;;;;;;7.18;100.00;98245.28;4988592;28;20103;-70
2024/02/23 01:54:06;;;;;;;1.92;0.50;;;;;;;7.15;100.00;98242.00;4991711;28;20050;-70
2024/02/23 01:56:36;;;;;;;0.93;0.50;;;;;;;7.05;100.00;98257.59;4965411;28;20062;-70
2024/02/23 01:59:05;;;;;;;1.80;0.47;;;;;;;6.98;100.00;98266.81;4984205;28;20038;-71
2024/02/23 02:01:34;;;;;;;3.22;0.50;;;;;;;6.88;100.00;98263.97;4963373;28;20054;-69
2024/02/23 02:04:04;;;;;;;2.03;0.47;;;;;;;6.88;100.00;98273.63;4977430;28;20042;-69
2024/02/23 02:06:32;;;;;;;1.75;0.30;;;;;;;6.79;100.00;98277.69;4979153;28;20122;-71
2024/02/23 02:09:00;;;;;;;0.73;0.30;;;;;;;6.64;100.00;98269.00;4951943;28;20038;-71
2024/02/23 02:11:31;;;;;;;1.50;0.32;;;;;;;6.79;100.00;98296.09;4965482;28;20081;-71
2024/02/23 02:14:02;;;;;;;4.60;0.57;;;;;;;6.78;100.00;98294.41;4968856;28;20050;-72
2024/02/23 02:16:32;;;;;;;1.23;0.20;;;;;;;6.82;100.00;98310.84;4981542;28;20056;-70
2024/02/23 02:19:00;;;;;;;4.38;0.50;;;;;;;6.80;100.00;98310.09;4936259;28;20507;-70
2024/02/23 02:21:31;;;;;;;2.35;0.40;;;;;;;6.80;100.00;98310.09;4965995;28;20125;-71
2024/02/23 02:24:02;;;;;;;1.08;0.40;;;;;;;6.81;100.00;98310.00;4963975;28;20051;-70
2024/02/23 02:26:30;;;;;;;;;;;;;;;6.83;100.00;98320.44;4981607;28;20057;-70
2024/02/23 02:28:59;;;;;;;1.40;0.47;;;;;;;6.75;100.00;98326.22;4983150;28;19926;-70
2024/02/23 02:31:29;;;;;;;3.80;0.40;;;;;;;6.68;100.00;98336.25;4981198;28;20047;-73
2024/02/23 02:33:58;;;;;;;1.75;0.40;;;;;;;6.61;100.00;98331.50;4967704;28;20098;-68
2024/02/23 02:36:26;;;;;;;2.50;0.30;;;;;;;6.60;100.00;98332.44;5004843;28;20127;-70
2024/02/23 02:38:55;;;;;;;4.40;0.30;;;;;;;6.56;100.00;98325.69;4987796;28;20050;-69
2024/02/23 02:41:29;;;;;;;2.33;0.30;;;;;;;6.41;100.00;98308.25;4988810;28;20047;-71
2024/02/23 02:43:57;;;;;;;2.30;0.35;;;;;;;6.42;100.00;98325.72;4990288;28;20047;-73
2024/02/23 02:46:25;;;;;;;2.03;0.32;;;;;;;6.41;100.00;98332.75;4954902;28;20043;-71
2024/02/23 02:48:56;;;;;;;2.70;0.40;;;;;;;6.38;100.00;98332.94;4969348;28;20043;-72
2024/02/23 02:51:25;;;;;;;1.42;0.45;;;;;;;6.35;100.00;98338.38;4968359;28;20051;-71
2024/02/23 02:53:54;;;;;;;1.60;0.50;;;;;;;6.40;100.00;98338.09;4979996;28;20043;-69
2024/02/23 02:56:22;;;;;;;3.17;0.50;;;;;;;6.46;100.00;98341.19;4978047;28;20516;-70
2024/02/23 02:58:52;;;;;;;1.95;0.40;;;;;;;6.47;100.00;98344.66;4978698;28;20130;-71
2024/02/23 03:01:21;;;;;;;2.03;0.30;;;;;;;6.48;100.00;98338.47;4969249;28;20055;-70
2024/02/23 03:03:49;;;;;;;2.78;0.57;;;;;;;6.49;100.00;98342.78;4976289;28;20623;-69
2024/02/23 03:06:18;;;;;;;3.65;0.43;;;;;;;6.39;100.00;98321.50;4979283;28;20047;-68
2024/02/23 03:08:47;;;;;;;3.08;0.80;;;;;;;6.52;100.00;98350.47;4969064;28;20762;-71
2024/02/23 03:11:17;;;;;;;3.38;1.02;;;;;;;6.51;100.00;98346.16;4936840;28;20098;-72
2024/02/23 03:13:46;;;;;;;2.50;0.50;;;;;;;6.52;100.00;98350.47;4971333;28;20105;-69
2024/02/23 03:16:16;;;;;;;1.40;0.32;;;;;;;6.44;100.00;98342.25;4947248;28;20535;-71
2024/02/23 03:18:45;;;;;;;2.95;0.45;;;;;;;6.38;100.00;98348.72;4954799;28;20052;-71
2024/02/23 03:21:15;;;;;;;1.45;0.60;;;;;;;6.37;100.00;98357.53;4950073;28;20050;-71
2024/02/23 03:23:45;;;;;;;2.45;0.57;;;;;;;6.33;100.00;98356.88;4947155;28;20050;-71
2024/02/23 03:26:13;;;;;;;2.47;0.50;;;;;;;6.31;100.00;98365.81;4948719;28;20679;-72
2024/02/23 03:28:45;;;;;;;0.52;0.30;;;;;;;6.34;100.00;98357.72;4953621;28;20057;-71
2024/02/23 03:31:14;;;;;;;1.45;0.40;;;;;;;6.36;100.00;98353.22;4949178;28;20460;-70
2024/02/23 03:33:42;;;;;;;2.35;0.40;;;;;;;6.38;100.00;98353.97;4943802;28;20054;-70
2024/02/23 03:36:10;;;;;;;4.63;0.40;;;;;;;6.39;100.00;98366.19;4962911;28;20043;-70
2024/02/23 03:38:42;;;;;;;3.75;0.60;;;;;;;6.44;100.00;98366.75;4968659;28;20049;-71
2024/02/23 03:41:10;;;;;;;2.53;0.50;;;;;;;6.47;100.00;98363.06;4967926;28;20101;-70
2024/02/23 03:43:39;;;;;;;4.07;0.47;;;;;;;6.47;100.00;98363.91;4982348;28;20043;-69
2024/02/23 03:46:08;;;;;;;1.38;0.38;;;;;;;6.48;100.00;98377.91;4963661;28;20046;-72
2024/02/23 03:48:36;;;;;;;2.33;0.30;;;;;;;6.44;100.00;98372.00;4965727;28;20685;-71
2024/02/23 03:51:04;;;;;;;3.30;0.50;;;;;;;6.44;100.00;98385.16;4980883;28;20098;-71
2024/02/23 03:53:32;;;;;;;2.50;0.50;;;;;;;6.42;100.00;98373.03;4967953;28;20694;-71
2024/02/23 03:56:00;;;;;;;5.85;0.60;;;;;;;6.38;100.00;98382.91;4950691;28;20053;-71
2024/02/23 03:58:29;;;;;;;1.90;0.40;;;;;;;6.36;100.00;98376.88;4966885;28;20066;-69
2024/02/23 04:00:57;;;;;;;1.80;0.40;;;;;;;6.37;100.00;98383.84;4980903;28;20043;-70
2024/02/23 04:03:27;;;;;;;5.50;0.73;;;;;;;6.35;100.00;98375.19;4984753;28;20047;-71
2024/02/23 04:05:54;;;;;;;2.10;0.30;;;;;;;6.29;100.00;98376.44;4949532;28;20807;-69
2024/02/23 04:08:23;;;;;;;3.78;0.45;;;;;;;6.29;100.00;98379.06;4981817;28;20359;-73
2024/02/23 04:10:51;;;;;;;3.17;0.50;;;;;;;6.31;100.00;98381.56;4968813;28;20544;-70
2024/02/23 04:13:19;;;;;;;2.28;0.55;;;;;;;6.33;100.00;98393.69;4981438;28;20046;-70
2024/02/23 04:15:47;;;;;;;3.72;0.50;;;;;;;6.37;100.00;98396.97;4965164;28;20054;-72
2024/02/23 04:18:15;;;;;;;2.38;0.60;;;;;;;6.37;100.00;98396.13;4966199;28;20051;-70
2024/02/23 04:20:44;;;;;;;5.18;0.85;;;;;;;6.38;100.00;98390.78;4982707;28;20047;-72
2024/02/23 04:23:12;;;;;;;4.35;0.68;;;;;;;6.36;100.00;98399.69;4969050;28;20066;-69
2024/02/23 04:25:41;;;;;;;4.55;0.60;;;;;;;6.36;100.00;98399.69;4964886;28;20054;-70
2024/02/23 04:28:09;;;;;;;6.88;0.73;;;;;;;6.36;100.00;98405.81;4968582;28;20538;-69
2024/02/23 04:30:36;;;;;;;1.40;0.40;;;;;;;6.34;100.00;98400.63;4976390;28;20046;-70
2024/02/23 04:33:07;;;;;;;2.90;0.52;;;;;;;6.27;100.00;98383.56;4959420;28;20063;-70
2024/02/23 04:35:38;;;;;;;1.50;0.82;;;;;;;6.37;100.00;98404.00;4971933;28;20035;-71
2024/02/23 04:38:08;;;;;;;4.30;0.80;;;;;;;6.41;100.00;98405.53;4971908;28;20098;-69
2024/02/23 04:40:36;;;;;;;3.97;0.67;;;;;;;6.29;100.00;98392.22;4964273;28;20046;-70
2024/02/23 04:43:05;;;;;;;2.90;0.70;;;;;;;6.41;100.00;98402.91;4971405;28;21679;-69
2024/02/23 04:45:33;;;;;;;4.72;0.75;;;;;;;6.41;100.00;98413.41;4974655;28;20078;-70
2024/02/23 04:48:01;;;;;;;1.45;0.70;;;;;;;6.43;100.00;98412.38;4965310;28;20042;-72
2024/02/23 04:50:29;;;;;;;3.13;0.75;;;;;;;6.36;100.00;98403.16;4963431;28;20051;-69
2024/02/23 04:52:58;;;;;;;3.35;0.60;;;;;;;6.29;100.00;98397.47;4948654;28;20039;-70
2024/02/23 04:55:27;;;;;;;2.75;0.70;;;;;;;6.27;100.00;98398.50;4961914;28;20904;-71
2024/02/23 04:57:55;;;;;;;4.78;0.80;;;;;;;6.23;100.00;98400.44;4961160;28;20047;-68
2024/02/23 05:00:28;;;;;;;2.42;0.70;;;;;;;6.17;100.00;98400.81;4977178;28;20057;-68
2024/02/23 05:02:56;;;;;;;3.85;0.82;;;;;;;5.97;100.00;98383.66;4965079;28;20050;-71
2024/02/23 05:05:25;;;;;;;7.03;0.88;;;;;;;5.97;100.00;98398.56;4966498;28;20053;-71
2024/02/23 05:07:53;;;;;;;4.05;0.80;;;;;;;5.84;100.00;98398.41;4974415;28;20526;-71
2024/02/23 05:10:22;;;;;;;4.53;1.05;;;;;;;5.75;100.00;98385.81;4967585;28;20109;-71
2024/02/23 05:12:53;;;;;;;5.60;0.95;;;;;;;5.61;100.00;98378.75;4968368;28;20046;-71
2024/02/23 05:15:21;;;;;;;5.07;1.10;;;;;;;5.58;100.00;98373.69;4967913;28;20055;-69
2024/02/23 05:17:50;;;;;;;1.05;0.70;;;;;;;5.58;100.00;98378.09;4969040;28;20134;-70
2024/02/23 05:20:18;;;;;;;4.68;1.15;;;;;;;5.53;100.00;98385.38;4971388;28;20046;-69
2024/02/23 05:22:46;;;;;;;3.83;0.93;;;;;;;5.26;100.00;98346.69;4974187;28;20188;-71
2024/02/23 05:25:16;;;;;;;4.28;0.93;;;;;;;5.43;100.00;98381.63;4973241;28;20054;-68
2024/02/23 05:27:44;;;;;;;5.30;0.95;;;;;;;5.40;100.00;98387.88;4981166;28;20046;-70
2024/02/23 05:30:14;;;;;;;3.13;0.90;;;;;;;5.32;100.00;98371.75;4985721;28;20062;-71
2024/02/23 05:32:42;;;;;;;2.25;1.08;;;;;;;5.37;100.00;98382.81;4980814;28;20051;-72
2024/02/23 05:35:12;;;;;;;3.60;0.93;;;;;;;5.37;100.00;98374.09;4976807;28;20550;-72
2024/02/23 05:37:40;;;;;;;6.22;1.30;;;;;;;5.35;100.00;98375.97;4977732;28;20739;-71
2024/02/23 05:40:12;;;;;;;3.60;1.00;;;;;;;5.23;100.00;98372.25;4968771;28;20487;-71
2024/02/23 05:42:42;;;;;;;5.97;0.95;;;;;;;5.19;100.00;98381.25;4961045;28;20142;-71
2024/02/23 05:45:11;;;;;;;5.03;1.17;;;;;;;5.21;100.00;98385.47;4962916;28;20050;-72
2024/02/23 05:47:40;;;;;;;4.03;0.88;;;;;;;5.19;100.00;98389.97;4970346;28;20047;-68
2024/02/23 05:50:15;;;;;;;2.22;0.90;;;;;;;5.18;100.00;98385.66;4987770;28;20031;-70
2024/02/23 05:52:43;;;;;;;4.65;1.38;;;;;;;5.17;100.00;98372.63;4967765;28;20046;-71
2024/02/23 05:55:11;;;;;;;4.88;0.90;;;;;;;5.16;100.00;98382.28;4966770;28;20055;-71
2024/02/23 05:57:48;;;;;;;4.47;1.13;;;;;;;5.17;100.00;98386.59;4966683;28;20528;-71
2024/02/23 06:00:18;;;;;;;3.00;1.10;;;;;;;5.18;100.00;98390.91;4961444;28;20117;-71
2024/02/23 06:02:48;;;;;;;2.70;1.17;;;;;;;5.19;100.00;98389.97;4982098;28;20047;-71
2024/02/23 06:05:17;;;;;;;3.65;1.10;;;;;;;5.25;100.00;98396.63;4964465;28;20117;-71
2024/02/23 06:07:45;;;;;;;3.88;1.10;;;;;;;5.24;100.00;98398.41;4982977;28;20039;-71
2024/02/23 06:10:14;;;;;;;4.72;1.00;;;;;;;5.25;100.00;98402.72;4969617;28;20065;-71
2024/02/23 06:12:42;;;;;;;7.35;1.40;;;;;;;5.42;100.00;98419.28;4971144;28;20043;-70
2024/02/23 06:15:10;;;;;;;3.20;1.00;;;;;;;5.45;100.00;98422.59;4968461;28;20039;-71
2024/02/23 06:17:39;;;;;;;3.47;1.20;;;;;;;5.43;100.00;98421.00;4986449;28;20055;-70
2024/02/23 06:20:09;;;;;;;5.13;1.63;;;;;;;5.49;100.00;98426.75;4980305;28;20451;-69
2024/02/23 06:22:39;;;;;;;4.90;1.00;;;;;;;5.53;100.00;98420.34;4988948;28;20073;-68
2024/02/23 06:25:11;;;;;;;3.25;1.05;;;;;;;5.60;100.00;98441.88;5002992;28;20050;-71
2024/02/23 06:27:40;;;;;;;3.50;1.23;;;;;;;5.64;100.00;98436.34;5000429;28;20039;-72
2024/02/23 06:30:10;;;;;;;4.57;0.75;;;;;;;5.70;100.00;98439.53;4995448;28;20039;-71
2024/02/23 06:32:39;;;;;;;7.03;0.70;;;;;;;5.74;100.00;98447.16;4987538;28;20408;-67
2024/02/23 06:35:11;;;;;;;3.67;0.93;;;;;;;5.66;100.00;98444.16;4974396;28;20815;-70
2024/02/23 06:37:40;;;;;;;4.30;0.73;;;;;;;5.79;100.00;98468.75;4961397;28;20613;-70
2024/02/23 06:40:09;;;;;;;4.10;0.75;;;;;;;5.83;100.00;98477.28;4975919;28;20121;-71
2024/02/23 06:42:37;;;;;;;2.53;0.90;;;;;;;5.78;100.00;98464.44;4994705;28;20109;-70
2024/02/23 06:45:09;;;;;;;3.35;0.90;;;;;;;5.83;100.00;98466.78;4982246;28;20062;-71
2024/02/23 06:47:42;;;;;;;2.80;0.88;;;;;;;5.96;100.00;98473.91;4982388;28;20399;-71
2024/02/23 06:50:17;;;;;;;6.47;0.90;;;;;;;6.02;100.00;98475.31;4992320;28;20236;-71
2024/02/23 06:52:50;;;;;;;3.40;0.98;;;;;;;6.07;100.00;98480.31;4987041;28;20042;-68
2024/02/23 06:55:19;;;;;;;4.10;0.85;;;;;;;6.01;100.00;98476.25;4998654;28;20047;-71
2024/02/23 06:57:48;;;;;;;4.40;1.00;;;;;;;5.97;100.00;98480.84;4999349;28;20074;-71
2024/02/23 07:00:16;;;;;;;4.35;1.08;;;;;;;5.86;100.00;98467.44;4980932;28;20066;-68
2024/02/23 07:02:44;;;;;;;3.63;0.80;;;;;;;5.97;100.00;98478.22;4983843;28;20122;-70
2024/02/23 07:05:15;;;;;;;3.60;1.13;;;;;;;6.04;100.00;98491.84;4988869;28;20075;-71
2024/02/23 07:07:46;;;;;;;2.85;0.65;;;;;;;6.06;100.00;98494.38;4972189;28;20495;-70
2024/02/23 07:10:14;;;;;;;5.63;1.15;;;;;;;6.07;100.00;98489.03;4990949;28;20137;-71
2024/02/23 07:12:44;;;;;;;3.67;0.95;;;;;;;6.07;100.00;98490.81;4957175;28;20054;-69
2024/02/23 07:15:12;;;;;;;4.80;1.00;;;;;;;6.04;100.00;98490.97;4964964;28;20066;-71
2024/02/23 07:17:41;;;;;;;4.00;0.93;;;;;;;6.10;100.00;98490.63;4983018;28;20059;-71
2024/02/23 07:20:10;;;;;;;4.70;0.85;;;;;;;6.24;100.00;98488.03;4967164;28;20152;-69
2024/02/23 07:22:39;;;;;;;5.20;0.77;;;;;;;6.36;100.00;98500.44;4983205;28;20127;-69
2024/02/23 07:25:11;;;;;;;5.53;0.98;;;;;;;6.41;100.00;98493.13;4973752;28;20051;-70
2024/02/23 07:27:39;;;;;;;;;;;;;;;6.54;100.00;98491.44;4965354;28;20057;-69
2024/02/23 07:30:10;;;;;;;3.55;0.90;;;;;;;6.58;100.00;98487.69;4988858;28;19929;-72
2024/02/23 07:32:38;;;;;;;3.92;0.90;;;;;;;6.62;100.00;98481.28;4968066;28;20042;-68
2024/02/23 07:35:08;;;;;;;5.05;0.70;;;;;;;6.71;100.00;98463.25;4967232;28;20105;-71
2024/02/23 07:37:36;;;;;;;4.38;0.88;;;;;;;6.84;100.00;98466.81;4984800;28;20624;-69
2024/02/23 07:40:07;;;;;;;8.07;1.45;;;;;;;7.01;100.00;98475.34;4970937;28;20250;-70
2024/02/23 07:42:38;;;;;;;2.35;0.73;;;;;;;7.30;100.00;98485.81;4984801;28;20046;-68
2024/02/23 07:45:09;;;;;;;2.05;0.70;;;;;;;7.54;100.00;98489.50;4980659;28;20534;-69
2024/02/23 07:47:37;;;;;;;3.92;0.85;;;;;;;7.56;100.00;98471.78;4963002;28;21104;-70
2024/02/23 07:50:07;;;;;;;6.07;1.20;;;;;;;7.66;100.00;98493.97;4966143;28;20039;-71
2024/02/23 07:52:35;;;;;;;3.88;0.93;;;;;;;7.53;100.00;98484.34;4960790;28;20051;-69
2024/02/23 07:55:08;;;;;;;;;;;;;;;7.44;100.00;98498.09;4964070;28;21135;-68
2024/02/23 07:57:39;;;;;;;2.92;0.70;;;;;;;7.27;100.00;98484.22;4970822;28;19960;-72
2024/02/23 08:00:09;;;;;;;4.40;0.98;;;;;;;7.22;100.00;98496.00;4974305;28;20051;-71
2024/02/23 08:02:40;;;;;;;5.63;1.00;;;;;;;7.25;100.00;98525.59;4968881;28;20133;-69
2024/02/23 08:05:14;;;;;;;7.00;1.30;;;;;;;7.15;100.00;98510.47;4983880;28;20043;-67
2024/02/23 08:07:42;;;;;;;3.72;0.80;;;;;;;7.20;100.00;98518.94;4985600;28;20066;-69
2024/02/23 08:10:13;;;;;;;4.10;0.80;;;;;;;7.17;100.00;98519.97;4985142;28;20051;-71
2024/02/23 08:12:41;;;;;;;5.25;0.95;;;;;;;7.23;100.00;98532.75;4983659;28;20059;-68
2024/02/23 08:15:13;;;;;;;4.65;0.88;;;;;;;7.29;100.00;98529.72;4963821;28;20052;-71
2024/02/23 08:17:41;;;;;;;4.45;0.80;;;;;;;7.38;100.00;98530.94;4944231;28;20074;-70
2024/02/23 08:20:11;;;;;;;5.78;0.98;;;;;;;7.37;100.00;98527.47;4960814;28;20056;-72
2024/02/23 08:22:39;;;;;;;4.10;0.88;;;;;;;7.38;100.00;98526.53;4964616;28;20057;-70
2024/02/23 08:25:08;;;;;;;5.15;1.58;;;;;;;7.44;100.00;98522.63;4982956;28;20062;-69
2024/02/23 08:27:44;;;;;;;3.15;0.70;;;;;;;7.49;100.00;98535.53;4973879;28;20057;-67
2024/02/23 08:30:15;;;;;;;4.13;0.88;;;;;;;7.54;100.00;98525.53;4981835;28;20460;-67
2024/02/23 08:32:43;;;;;;;9.93;1.52;;;;;;;7.59;100.00;98528.72;4980003;28;20524;-68
2024/02/23 08:35:15;;;;;;;5.18;0.90;;;;;;;7.55;100.00;98533.34;4988451;28;20177;-71
2024/02/23 08:37:43;;;;;;;2.42;0.70;;;;;;;7.49;100.00;98530.25;4953628;28;20050;-69
2024/02/23 08:40:13;;;;;;;4.38;0.70;;;;;;;7.50;100.00;98526.69;4980831;28;20035;-69
2024/02/23 08:42:43;;;;;;;6.85;1.15;;;;;;;7.43;100.00;98533.25;4993900;28;20204;-69
2024/02/23 08:45:12;;;;;;;3.08;0.82;;;;;;;7.43;100.00;98534.09;4974793;28;20133;-71
2024/02/23 08:47:40;;;;;;;6.53;1.13;;;;;;;7.54;100.00;98544.84;4973792;28;20038;-70
2024/02/23 08:50:09;;;;;;;5.82;1.00;;;;;;;7.55;100.00;98545.69;4987596;28;20062;-69
2024/02/23 08:52:37;;;;;;;6.40;1.45;;;;;;;7.49;100.00;98533.72;4985040;28;20046;-68
2024/02/23 08:55:05;;;;;;;8.98;1.52;;;;;;;7.44;100.00;98550.75;4966494;28;20380;-65
2024/02/23 08:57:35;;;;;;;6.25;1.00;;;;;;;7.31;100.00;98540.16;4971725;28;20055;-68
2024/02/23 09:00:05;;;;;;;6.00;1.07;;;;;;;7.28;100.00;98541.19;4976685;28;20050;-71
2024/02/23 09:02:35;;;;;;;5.82;0.90;;;;;;;7.28;100.00;98540.34;4989095;28;20193;-69
2024/02/23 09:05:09;;;;;;;5.15;0.73;;;;;;;7.28;100.00;98546.47;4973462;28;20519;-71
2024/02/23 09:07:39;;;;;;;8.73;1.20;;;;;;;7.21;100.00;98539.91;4989388;28;20054;-69
2024/02/23 09:10:12;;;;;;;6.85;0.90;;;;;;;7.15;100.00;98553.44;4978133;28;20092;-70
2024/02/23 09:12:41;;;;;;;7.00;1.13;;;;;;;7.12;100.00;98547.50;4994487;28;20057;-69
2024/02/23 09:15:11;;;;;;;8.38;0.90;;;;;;;7.03;100.00;98556.84;5006809;28;20570;-68
2024/02/23 09:17:41;;;;;;;6.28;0.82;;;;;;;7.00;100.00;98551.75;5000000;28;20035;-69
2024/02/23 09:20:11;;;;;;;10.43;1.60;;;;;;;6.93;100.00;98555.69;5002408;28;20046;-68
2024/02/23 09:22:40;;;;;;;5.78;1.10;;;;;;;6.94;100.00;98557.38;5005616;28;20078;-70
2024/02/23 09:25:08;;;;;;;6.55;0.90;;;;;;;7.00;100.00;98552.59;4956756;28;20043;-68
2024/02/23 09:27:43;;;;;;;6.25;1.10;;;;;;;7.10;100.00;98542.34;4967695;28;20062;-69
2024/02/23 09:30:15;;;;;;;8.10;1.00;;;;;;;7.12;100.00;98551.00;4983834;28;20037;-71
2024/02/23 09:32:44;;;;;;;8.50;1.00;;;;;;;7.16;100.00;98544.59;4985654;28;20133;-71
2024/02/23 09:35:12;;;;;;;7.25;0.93;;;;;;;7.08;100.00;98517.09;4974852;28;20106;-67
2024/02/23 09:37:42;;;;;;;4.72;0.75;;;;;;;7.30;100.00;98551.63;4956367;28;20062;-70
2024/02/23 09:40:11;;;;;;;7.05;1.13;;;;;;;7.37;100.00;98545.06;4969758;28;20043;-70
2024/02/23 09:42:41;;;;;;;7.22;0.88;;;;;;;7.48;100.00;98542.56;4966997;28;20051;-71
2024/02/23 09:45:14;;;;;;;4.43;1.02;;;;;;;7.52;100.00;98533.53;4966815;28;20047;-69
2024/02/23 09:47:43;;;;;;;5.55;1.05;;;;;;;7.71;100.00;98527.94;4980578;28;20047;-69
2024/02/23 09:50:14;;;;;;;3.17;0.60;;;;;;;7.89;100.00;98510.06;4966385;28;20066;-71
2024/02/23 09:52:50;;;;;;;6.72;1.15;;;;;;;8.11;100.00;98523.50;4982011;28;20507;-70
2024/02/23 09:55:18;;;;;;;4.22;0.90;;;;;;;8.26;100.00;98519.84;4951976;28;20059;-70
2024/02/23 09:57:48;;;;;;;4.80;1.88;;;;;;;8.28;100.00;98519.75;4959857;28;20074;-70
2024/02/23 10:00:18;;;;;;;5.57;1.25;;;;;;;8.48;100.00;98521.91;4965988;28;20110;-71
2024/02/23 10:02:47;;;;;;;6.80;1.70;;;;;;;8.50;100.00;98524.47;4968238;28;20047;-71
2024/02/23 10:05:16;;;;;;;6.85;1.17;;;;;;;8.58;100.00;98522.97;4969009;28;20070;-70
2024/02/23 10:07:46;;;;;;;5.72;0.90;;;;;;;8.68;100.00;98531.09;4964444;28;20495;-70
2024/02/23 10:10:14;;;;;;;4.60;0.70;;;;;;;8.71;98.40;98521.16;4961764;28;20105;-70
2024/02/23 10:12:44;;;;;;;5.93;1.13;;;;;;;8.75;96.70;98512.09;4977795;28;20047;-71
2024/02/23 10:15:13;;;;;;;7.65;1.45;;;;;;;8.77;93.83;98515.47;4969595;28;20110;-68
2024/02/23 10:17:44;;;;;;;5.93;0.70;;;;;;;8.86;93.05;98516.63;4976288;28;20061;-71
2024/02/23 10:20:14;;;;;;;7.10;1.00;;;;;;;8.73;89.11;98521.06;4966996;28;20129;-69
2024/02/23 10:22:42;;;;;;;10.85;1.40;;;;;;;8.65;91.72;98505.78;4969335;28;20057;-70
2024/02/23 10:25:10;;;;;;;6.65;0.90;;;;;;;8.82;91.15;98512.50;4965776;28;20043;-71
2024/02/23 10:27:38;;;;;;;5.28;0.88;;;;;;;8.98;90.06;98501.72;4979926;28;20161;-68
2024/02/23 10:30:11;;;;;;;5.82;0.98;;;;;;;9.09;85.48;98509.75;4980967;28;20062;-70
2024/02/23 10:32:40;;;;;;;6.47;1.10;;;;;;;9.19;83.96;98516.03;4968368;28;20074;-69
2024/02/23 10:35:16;;;;;;;5.95;1.10;;;;;;;9.25;83.42;98507.69;4954201;28;20503;-71
2024/02/23 10:37:45;;;;;;;6.43;1.20;;;;;;;9.28;81.91;98504.00;4967099;28;20427;-69
2024/02/23 10:40:15;;;;;;;9.10;1.33;;;;;;;9.29;82.21;98506.50;4968358;28;20051;-69
2024/02/23 10:42:47;;;;;;;6.27;1.13;;;;;;;9.24;82.87;98508.66;4973505;28;20454;-69
2024/02/23 10:45:19;;;;;;;5.03;0.93;;;;;;;9.04;85.58;98507.41;5002699;28;20057;-70
2024/02/23 10:47:49;;;;;;;4.60;0.83;;;;;;;9.06;86.30;98520.50;4991619;28;20149;-69
2024/02/23 10:50:21;;;;;;;3.85;0.85;;;;;;;9.03;84.75;98513.66;4973195;28;20059;-71
2024/02/23 10:52:52;;;;;;;2.95;0.77;;;;;;;8.82;85.50;98501.09;4973624;28;20039;-68
2024/02/23 10:55:24;;;;;;;4.35;1.23;;;;;;;8.75;87.36;98516.53;4976820;28;20054;-68
2024/02/23 10:57:54;;;;;;;5.22;0.75;;;;;;;8.45;88.34;98495.75;4964302;28;20073;-68
2024/02/23 11:00:26;;;;;;;5.10;0.88;;;;;;;8.62;92.07;98507.78;4968958;28;20527;-69
2024/02/23 11:02:59;;;;;;;5.38;1.38;;;;;;;8.79;89.55;98508.31;4970008;28;20350;-71
2024/02/23 11:05:29;;;;;;;3.80;1.40;;;;;;;8.85;88.26;98492.97;4973535;28;20066;-70
2024/02/23 11:07:57;;;;;;;6.65;1.40;;;;;;;8.91;87.49;98489.91;4964623;28;20074;-69
2024/02/23 11:10:27;;;;;;;6.75;1.52;;;;;;;9.06;88.32;98502.88;4984187;28;20035;-69
2024/02/23 11:13:00;;;;;;;10.43;1.30;;;;;;;9.14;86.80;98507.59;4972720;28;20043;-67
2024/02/23 11:15:29;;;;;;;3.50;0.73;;;;;;;8.98;87.16;98499.91;4967724;28;20279;-70
2024/02/23 11:17:57;;;;;;;4.47;1.38;;;;;;;8.85;90.46;98498.25;4966657;28;20051;-71
2024/02/23 11:20:39;;;;;;;6.38;1.00;;;;;;;8.75;89.53;98498.91;4995782;28;20137;-71
2024/02/23 11:23:18;;;;;;;2.97;0.70;;;;;;;8.69;91.84;98494.03;4992316;28;20083;-69
2024/02/23 11:26:00;;;;;;;5.57;1.17;;;;;;;8.64;93.90;98493.53;5008538;28;20071;-67
2024/02/23 11:28:31;;;;;;;5.97;1.58;;;;;;;8.67;95.90;98497.72;4982094;28;20059;-70
2024/02/23 11:31:02;;;;;;;6.80;1.50;;;;;;;8.78;95.38;98501.34;4993571;28;20105;-68
2024/02/23 11:33:35;;;;;;;;;;;;;;;8.93;94.56;98509.13;4990756;28;20051;-68
2024/02/23 11:36:10;;;;;;;5.85;0.80;;;;;;;8.94;93.14;98508.19;4992993;28;19926;-67
2024/02/23 11:38:41;;;;;;;7.53;1.30;;;;;;;8.99;93.55;98498.97;4976778;28;20077;-68
2024/02/23 11:41:10;;;;;;;6.63;1.40;;;;;;;9.13;91.16;98490.91;4992302;28;20046;-70
2024/02/23 11:43:40;;;;;;;8.85;1.40;;;;;;;9.28;90.40;98481.06;4973040;28;20051;-69
2024/02/23 11:46:09;;;;;;;2.30;0.93;;;;;;;9.50;88.11;98494.41;4989735;28;20055;-69
2024/02/23 11:48:37;;;;;;;8.50;1.67;;;;;;;9.55;90.68;98490.59;4977214;28;20046;-69